Terminal Aerodrome Forecast
Issued by NWS Cleveland, OH

Home | Current Version | Previous Version | Graphics & Text | Print | Product List | Glossary Off
Versions: 1 2 3 4 5 6 7 8 9 10 11 12 13 14 15 16 17 18 19 20 21 22 23 24

000
FTUS41 KCLE 270500 CCA
TAFCAK
TAF COR
KCAK 270551Z 2706/2806 27006KT 4SM BR SCT020 OVC045
     FM271000 30008KT P6SM OVC018
     FM271700 31010KT P6SM BKN035
     FM280000 35010KT P6SM OVC050
     FM280300 34010KT P6SM OVC100=

USA.gov is the U.S. government's official web portal to all federal, state and local government web resources and services.